createdAt,value
2019-05-09T00:00:07.879Z,96865.93
2019-05-09T00:02:44.204Z,96864.00
2019-05-09T00:05:17.761Z,96861.66
2019-05-09T00:07:53.186Z,96860.34
2019-05-09T00:10:38.603Z,96864.44
2019-05-09T00:13:03.281Z,96873.28
2019-05-09T00:15:37.205Z,96872.01
2019-05-09T00:18:10.511Z,96874.67
2019-05-09T00:20:58.323Z,96872.69
2019-05-09T00:23:33.211Z,96870.09
2019-05-09T00:26:05.913Z,96872.26
2019-05-09T00:28:43.991Z,96861.70
2019-05-09T00:31:26.500Z,96864.98
2019-05-09T00:34:04.144Z,96873.95
2019-05-09T00:36:38.375Z,96862.55
2019-05-09T00:39:13.350Z,96862.72
2019-05-09T00:41:47.108Z,96860.25
2019-05-09T00:44:25.485Z,96852.25
2019-05-09T00:47:08.142Z,96854.59
2019-05-09T00:49:43.393Z,96852.30
2019-05-09T00:52:19.526Z,96858.99
2019-05-09T00:54:53.111Z,96868.27
2019-05-09T00:57:36.438Z,96863.09
2019-05-09T01:00:14.700Z,96862.30
2019-05-09T01:02:48.188Z,96862.67
2019-05-09T01:05:19.885Z,96863.06
2019-05-09T01:07:53.769Z,96855.66
2019-05-09T01:10:27.739Z,96858.58
2019-05-09T01:13:03.450Z,96859.25
2019-05-09T01:15:36.869Z,96849.98
2019-05-09T01:18:10.533Z,96847.50
2019-05-09T01:20:44.159Z,96847.38
2019-05-09T01:23:17.112Z,96851.00
2019-05-09T01:25:49.477Z,96848.39
2019-05-09T01:28:23.229Z,96849.10
2019-05-09T01:30:56.400Z,96854.05
2019-05-09T01:33:44.813Z,96864.73
2019-05-09T01:36:17.903Z,96866.71
2019-05-09T01:38:51.182Z,96852.33
2019-05-09T01:41:30.518Z,96852.99
2019-05-09T01:43:59.118Z,96850.47
2019-05-09T01:46:33.923Z,96850.48
2019-05-09T01:49:06.512Z,96848.00
2019-05-09T01:51:38.877Z,96849.63
2019-05-09T01:54:13.124Z,96846.86
2019-05-09T01:56:45.788Z,96849.91
2019-05-09T01:59:18.624Z,96847.39
2019-05-09T02:01:51.013Z,96860.63
2019-05-09T02:04:24.330Z,96859.34
2019-05-09T02:06:57.117Z,96864.73
2019-05-09T02:09:29.489Z,96861.59
2019-05-09T02:12:03.812Z,96858.64
2019-05-09T02:14:43.748Z,96855.11
2019-05-09T02:17:27.088Z,96857.14
2019-05-09T02:19:59.455Z,96857.80
2019-05-09T02:22:35.080Z,96854.88
2019-05-09T02:25:10.918Z,96857.85
2019-05-09T02:27:44.259Z,96852.23
2019-05-09T02:30:16.369Z,96848.66
2019-05-09T02:32:49.814Z,96855.28
2019-05-09T02:35:23.318Z,96852.72
2019-05-09T02:37:58.715Z,96855.64
2019-05-09T02:40:33.515Z,96846.94
2019-05-09T02:43:09.688Z,96852.48
2019-05-09T02:45:51.844Z,96846.56
2019-05-09T02:48:21.389Z,96844.41
2019-05-09T02:50:54.516Z,96853.55
2019-05-09T02:53:28.879Z,96847.11
2019-05-09T02:56:01.647Z,96847.95
2019-05-09T02:58:43.099Z,96846.97
2019-05-09T03:01:39.102Z,96849.93
2019-05-09T03:04:12.346Z,96854.17
2019-05-09T03:06:48.909Z,96849.55
2019-05-09T03:09:20.681Z,96847.19
2019-05-09T03:11:52.897Z,96848.64
2019-05-09T03:14:28.428Z,96845.30
2019-05-09T03:16:59.906Z,96846.80
2019-05-09T03:19:32.280Z,96848.61
2019-05-09T03:22:09.301Z,96848.30
2019-05-09T03:24:43.562Z,96847.42
2019-05-09T03:27:23.788Z,96843.67
2019-05-09T03:29:59.078Z,96836.91
2019-05-09T03:32:31.731Z,96838.59
2019-05-09T03:35:04.087Z,96837.95
2019-05-09T03:37:37.837Z,96839.70
2019-05-09T03:40:11.338Z,96839.73
2019-05-09T03:42:43.827Z,96840.73
2019-05-09T03:45:18.316Z,96838.81
2019-05-09T03:47:55.364Z,96840.30
2019-05-09T03:50:28.086Z,96840.47
2019-05-09T03:53:00.792Z,96846.08
2019-05-09T03:55:38.190Z,96835.21
2019-05-09T03:58:18.390Z,96832.59
2019-05-09T04:00:51.384Z,96835.61
2019-05-09T04:03:23.806Z,96841.94
2019-05-09T04:06:02.586Z,96840.48
2019-05-09T04:08:31.281Z,96840.99
2019-05-09T04:11:04.418Z,96841.67
2019-05-09T04:13:40.260Z,96843.16
2019-05-09T04:16:12.706Z,96851.13
2019-05-09T04:18:45.074Z,96860.06
2019-05-09T04:21:18.410Z,96858.75
2019-05-09T04:23:52.210Z,96871.42
2019-05-09T04:26:38.150Z,96869.13
2019-05-09T04:29:10.588Z,96873.59
2019-05-09T04:31:43.828Z,96876.03
2019-05-09T04:34:18.326Z,96873.03
2019-05-09T04:36:51.129Z,96873.98
2019-05-09T04:39:23.971Z,96873.95
2019-05-09T04:42:03.632Z,96884.00
2019-05-09T04:44:42.400Z,96875.91
2019-05-09T04:47:17.386Z,96875.69
2019-05-09T04:49:50.867Z,96876.16
2019-05-09T04:52:22.133Z,96868.18
2019-05-09T04:54:54.450Z,96869.97
2019-05-09T04:57:27.933Z,96872.12
2019-05-09T05:00:00.705Z,96875.86
2019-05-09T05:02:45.361Z,96870.71
2019-05-09T05:05:18.134Z,96879.28
2019-05-09T05:07:50.542Z,96873.58
2019-05-09T05:10:38.266Z,96884.13
2019-05-09T05:13:25.676Z,96884.92
2019-05-09T05:15:47.552Z,96885.38
2019-05-09T05:18:21.500Z,96886.20
2019-05-09T05:20:57.608Z,96891.28
2019-05-09T05:23:44.172Z,96893.85
2019-05-09T05:26:18.375Z,96894.83
2019-05-09T05:28:51.139Z,96892.13
2019-05-09T05:31:28.669Z,96889.44
2019-05-09T05:34:08.686Z,96893.06
2019-05-09T05:36:41.630Z,96891.96
2019-05-09T05:39:15.153Z,96893.63
2019-05-09T05:41:48.529Z,96891.30
2019-05-09T05:44:20.955Z,96893.41
2019-05-09T05:47:09.218Z,96894.38
2019-05-09T05:49:41.932Z,96889.91
2019-05-09T05:52:14.005Z,96891.94
2019-05-09T05:54:47.695Z,96890.74
2019-05-09T05:57:20.479Z,96892.05
2019-05-09T05:59:52.714Z,96894.25
2019-05-09T06:02:25.352Z,96891.00
2019-05-09T06:04:58.323Z,96890.09
2019-05-09T06:07:30.452Z,96888.52
2019-05-09T06:10:03.431Z,96893.53
2019-05-09T06:12:38.022Z,96885.58
2019-05-09T06:15:13.907Z,96885.68
2019-05-09T06:17:48.377Z,96891.22
2019-05-09T06:20:21.053Z,96891.59
2019-05-09T06:22:53.169Z,96883.92
2019-05-09T06:25:30.003Z,96884.67
2019-05-09T06:28:00.616Z,96883.37
2019-05-09T06:30:33.555Z,96880.44
2019-05-09T06:33:08.976Z,96876.06
2019-05-09T06:35:43.324Z,96887.29
2019-05-09T06:38:18.510Z,96875.37
2019-05-09T06:40:50.662Z,96874.50
2019-05-09T06:43:28.854Z,96884.15
2019-05-09T06:46:27.722Z,96875.98
2019-05-09T06:49:20.437Z,96877.99
2019-05-09T06:51:38.563Z,96877.59
2019-05-09T06:54:10.701Z,96887.46
2019-05-09T06:56:43.816Z,96879.14
2019-05-09T06:59:15.166Z,96876.80
2019-05-09T07:01:51.897Z,96877.98
2019-05-09T07:04:38.439Z,96875.73
2019-05-09T07:07:33.603Z,96879.58
2019-05-09T07:10:07.648Z,96886.04
2019-05-09T07:12:40.338Z,96884.69
2019-05-09T07:15:12.795Z,96888.14
2019-05-09T07:17:45.329Z,96879.12
2019-05-09T07:20:18.370Z,96876.73
2019-05-09T07:22:54.489Z,96871.80
2019-05-09T07:25:41.547Z,96871.46
2019-05-09T07:28:15.350Z,96870.44
2019-05-09T07:31:11.737Z,96869.20
2019-05-09T07:33:54.171Z,96876.26
2019-05-09T07:36:27.819Z,96875.26
2019-05-09T07:39:00.535Z,96871.25
2019-05-09T07:41:33.797Z,96875.09
2019-05-09T07:44:07.632Z,96865.80
2019-05-09T07:47:02.426Z,96872.00
2019-05-09T07:49:37.675Z,96876.00
2019-05-09T07:52:10.618Z,96866.64
2019-05-09T07:54:42.806Z,96865.73
2019-05-09T07:57:17.958Z,96857.97
2019-05-09T07:59:49.967Z,96855.26
2019-05-09T08:02:22.511Z,96852.75
2019-05-09T08:04:57.636Z,96853.05
2019-05-09T08:07:29.345Z,96852.66
2019-05-09T08:10:01.499Z,96845.61
2019-05-09T08:12:34.416Z,96851.26
2019-05-09T08:15:13.714Z,96853.84
2019-05-09T08:17:39.641Z,96849.94
2019-05-09T08:20:13.880Z,96857.05
2019-05-09T08:22:57.245Z,96855.45
2019-05-09T08:25:21.525Z,96856.41
2019-05-09T08:27:54.252Z,96848.88
2019-05-09T08:30:32.930Z,96846.36
2019-05-09T08:33:01.231Z,96851.35
2019-05-09T08:35:33.299Z,96852.73
2019-05-09T08:38:08.297Z,96856.05
2019-05-09T08:40:40.006Z,96851.72
2019-05-09T08:43:12.337Z,96843.97
2019-05-09T08:45:44.945Z,96837.73
2019-05-09T08:48:18.402Z,96844.08
2019-05-09T08:50:55.258Z,96849.87
2019-05-09T08:53:30.037Z,96850.16
2019-05-09T08:56:03.772Z,96847.18
2019-05-09T08:58:38.287Z,96841.33
2019-05-09T09:01:11.785Z,96846.00
2019-05-09T09:03:48.304Z,96838.86
2019-05-09T09:06:20.071Z,96844.48
2019-05-09T09:08:52.113Z,96837.48
2019-05-09T09:11:24.583Z,96843.73
2019-05-09T09:13:59.377Z,96842.80
2019-05-09T09:16:31.456Z,96830.80
2019-05-09T09:19:04.164Z,96841.19
2019-05-09T09:21:38.803Z,96838.77
2019-05-09T09:24:11.454Z,96832.56
2019-05-09T09:26:43.799Z,96831.17
2019-05-09T09:29:17.842Z,96838.09
2019-05-09T09:31:51.903Z,96835.40
2019-05-09T09:34:26.954Z,96835.44
2019-05-09T09:37:03.178Z,96827.38
2019-05-09T09:39:32.781Z,96833.62
2019-05-09T09:42:08.789Z,96825.64
2019-05-09T09:44:41.239Z,96820.66
2019-05-09T09:47:13.432Z,96829.68
2019-05-09T09:49:45.481Z,96837.84
2019-05-09T09:52:18.728Z,96831.91
2019-05-09T09:54:51.437Z,96827.20
2019-05-09T09:57:23.902Z,96831.66
2019-05-09T10:00:07.442Z,96836.52
2019-05-09T10:02:40.050Z,96835.67
2019-05-09T10:05:12.356Z,96827.66
2019-05-09T10:07:44.515Z,96823.00
2019-05-09T10:10:34.648Z,96830.92
2019-05-09T10:13:10.407Z,96830.30
2019-05-09T10:16:24.600Z,96823.08
2019-05-09T10:19:09.945Z,96817.18
2019-05-09T10:21:48.696Z,96822.05
2019-05-09T10:24:20.814Z,96811.61
2019-05-09T10:27:13.176Z,96812.17
2019-05-09T10:29:47.826Z,96811.63
2019-05-09T10:32:20.085Z,96814.86
2019-05-09T10:34:52.855Z,96817.50
2019-05-09T10:37:25.462Z,96810.19
2019-05-09T10:39:58.101Z,96800.90
2019-05-09T10:42:38.005Z,96814.92
2019-05-09T10:45:32.716Z,96833.47
2019-05-09T10:48:05.555Z,96830.63
2019-05-09T10:50:44.632Z,96827.74
2019-05-09T10:53:11.839Z,96814.69
2019-05-09T10:55:44.177Z,96816.49
2019-05-09T10:58:19.640Z,96816.30
2019-05-09T11:00:50.393Z,96816.77
2019-05-09T11:03:24.394Z,96820.02
2019-05-09T11:16:23.017Z,96817.80
2019-05-09T11:29:49.624Z,96814.20
2019-05-09T11:37:58.704Z,96805.72
2019-05-09T11:42:43.848Z,96807.50
2019-05-09T11:56:42.220Z,96815.49
2019-05-09T12:05:24.734Z,96805.04
2019-05-09T12:38:05.424Z,96827.48
2019-05-09T12:45:29.539Z,96826.79
2019-05-09T12:48:10.140Z,96821.48
2019-05-09T12:50:38.554Z,96824.02
2019-05-09T12:53:10.429Z,96820.80
2019-05-09T12:55:42.497Z,96815.77
2019-05-09T12:58:27.807Z,96816.42
2019-05-09T13:01:01.640Z,96817.91
2019-05-09T13:03:34.241Z,96815.27
2019-05-09T13:06:07.984Z,96805.23
2019-05-09T13:08:40.737Z,96807.17
2019-05-09T13:11:13.530Z,96808.41
2019-05-09T13:13:47.834Z,96799.63
2019-05-09T13:16:43.965Z,96794.06
2019-05-09T13:19:13.488Z,96797.64
2019-05-09T13:21:46.523Z,96793.27
2019-05-09T13:24:19.537Z,96791.09
2019-05-09T13:26:53.339Z,96783.50
2019-05-09T13:29:25.768Z,96778.77
2019-05-09T13:31:57.870Z,96776.70
2019-05-09T13:34:30.674Z,96779.24
2019-05-09T13:37:03.059Z,96769.02
2019-05-09T13:39:35.827Z,96774.59
2019-05-09T13:42:08.449Z,96770.35
2019-05-09T13:44:41.619Z,96771.38
2019-05-09T13:47:14.346Z,96751.94
2019-05-09T13:49:48.464Z,96750.84
2019-05-09T13:52:27.656Z,96741.55
2019-05-09T13:55:01.909Z,96738.09
2019-05-09T13:57:34.868Z,96733.32
2019-05-09T14:00:08.741Z,96725.09
2019-05-09T14:02:44.948Z,96726.87
2019-05-09T14:05:18.616Z,96721.07
2019-05-09T14:07:54.838Z,96717.18
2019-05-09T14:10:25.416Z,96705.91
2019-05-09T14:13:08.996Z,96706.88
2019-05-09T14:15:34.544Z,96710.08
2019-05-09T14:18:05.339Z,96725.22
2019-05-09T14:20:38.238Z,96789.72
2019-05-09T14:23:11.804Z,96783.87
2019-05-09T14:25:48.457Z,96800.06
2019-05-09T14:28:18.761Z,96821.19
2019-05-09T14:30:51.152Z,96823.49
2019-05-09T14:33:23.290Z,96823.20
2019-05-09T14:35:55.883Z,96825.95
2019-05-09T14:38:28.228Z,96830.44
2019-05-09T14:41:01.844Z,96838.64
2019-05-09T14:43:39.224Z,96837.63
2019-05-09T14:46:11.289Z,96836.45
2019-05-09T14:48:45.015Z,96835.55
2019-05-09T14:51:18.663Z,96834.08
2019-05-09T14:53:51.910Z,96834.02
2019-05-09T14:56:23.017Z,96834.94
2019-05-09T14:58:57.726Z,96833.06
2019-05-09T15:01:30.206Z,96833.61
2019-05-09T15:04:00.977Z,96831.05
2019-05-09T15:06:33.961Z,96821.55
2019-05-09T15:09:08.945Z,96817.96
2019-05-09T15:11:41.879Z,96819.39
2019-05-09T15:14:13.040Z,96815.36
2019-05-09T15:16:45.496Z,96812.38
2019-05-09T15:19:18.658Z,96808.97
2019-05-09T15:21:52.315Z,96802.52
2019-05-09T15:24:24.668Z,96800.73
2019-05-09T15:26:58.029Z,96805.19
2019-05-09T15:29:30.655Z,96803.02
2019-05-09T15:32:06.153Z,96800.20
2019-05-09T15:34:38.314Z,96791.20
2019-05-09T15:37:11.040Z,96786.08
2019-05-09T15:39:44.123Z,96790.64
2019-05-09T15:42:18.081Z,96798.97
2019-05-09T15:44:49.435Z,96789.77
2019-05-09T15:47:29.739Z,96788.78
2019-05-09T15:50:15.727Z,96786.83
2019-05-09T15:52:38.233Z,96796.05
2019-05-09T15:55:11.354Z,96787.01
2019-05-09T15:57:43.428Z,96789.78
2019-05-09T16:00:18.769Z,96781.83
2019-05-09T16:02:50.463Z,96782.50
2019-05-09T16:05:23.546Z,96776.06
2019-05-09T16:07:54.782Z,96774.50
2019-05-09T16:10:28.500Z,96773.48
2019-05-09T16:13:01.186Z,96779.16
2019-05-09T16:15:40.626Z,96772.45
2019-05-09T16:18:18.204Z,96770.84
2019-05-09T16:20:52.180Z,96775.13
2019-05-09T16:23:29.058Z,96778.12
2019-05-09T16:26:07.904Z,96774.66
2019-05-09T16:28:42.356Z,96776.48
2019-05-09T16:31:16.506Z,96781.02
2019-05-09T16:33:49.522Z,96787.27
2019-05-09T16:36:22.415Z,96784.71
2019-05-09T16:38:58.379Z,96782.25
2019-05-09T16:41:31.562Z,96777.73
2019-05-09T16:44:04.226Z,96782.86
2019-05-09T16:46:37.747Z,96787.36
2019-05-09T16:49:12.080Z,96781.30
2019-05-09T16:51:45.032Z,96775.67
2019-05-09T16:54:25.102Z,96775.67
2019-05-09T16:57:00.087Z,96784.17
2019-05-09T16:59:33.454Z,96791.89
2019-05-09T17:02:18.836Z,96783.55
2019-05-09T17:04:50.153Z,96793.73
2019-05-09T17:07:23.891Z,96797.42
2019-05-09T17:09:57.828Z,96798.64
2019-05-09T17:12:30.634Z,96805.69
2019-05-09T17:15:04.735Z,96804.49
2019-05-09T17:17:38.747Z,96797.09
2019-05-09T17:20:13.093Z,96800.39
2019-05-09T17:23:13.499Z,96803.11
2019-05-09T17:25:38.623Z,96795.95
2019-05-09T17:28:12.744Z,96800.57
2019-05-09T17:30:48.967Z,96804.77
2019-05-09T17:33:20.747Z,96807.94
2019-05-09T17:35:53.713Z,96815.67
2019-05-09T17:38:27.888Z,96814.44
2019-05-09T17:40:59.727Z,96815.97
2019-05-09T17:43:32.416Z,96817.91
2019-05-09T17:46:07.637Z,96824.02
2019-05-09T17:48:40.400Z,96815.73
2019-05-09T17:51:14.636Z,96824.36
2019-05-09T17:53:51.780Z,96820.27
2019-05-09T17:56:40.604Z,96831.55
2019-05-09T17:59:14.294Z,96834.21
2019-05-09T18:01:48.215Z,96830.08
2019-05-09T18:04:22.984Z,96829.10
2019-05-09T18:06:58.184Z,96838.36
2019-05-09T18:09:29.872Z,96840.49
2019-05-09T18:12:03.455Z,96850.00
2019-05-09T18:14:38.304Z,96848.47
2019-05-09T18:17:12.696Z,96850.06
2019-05-09T18:19:46.290Z,96854.69
2019-05-09T18:22:19.267Z,96855.48
2019-05-09T18:24:53.450Z,96862.69
2019-05-09T18:27:27.990Z,96864.40
2019-05-09T18:30:01.379Z,96869.03
2019-05-09T18:32:40.827Z,96872.20
2019-05-09T18:35:19.534Z,96871.26
2019-05-09T18:37:54.879Z,96871.65
2019-05-09T18:40:28.672Z,96872.57
2019-05-09T18:43:01.997Z,96881.30
2019-05-09T18:45:33.205Z,96885.09
2019-05-09T18:48:05.435Z,96884.30
2019-05-09T18:50:38.230Z,96887.41
2019-05-09T18:53:10.852Z,96894.47
2019-05-09T18:55:43.901Z,96900.70
2019-05-09T18:58:14.998Z,96901.25
2019-05-09T19:00:47.130Z,96913.06
2019-05-09T19:03:24.608Z,96916.95
2019-05-09T19:05:57.335Z,96914.78
2019-05-09T19:08:30.496Z,96930.58
2019-05-09T19:11:02.200Z,96926.87
2019-05-09T19:13:58.604Z,96929.12
2019-05-09T19:16:43.440Z,96946.63
2019-05-09T19:19:35.867Z,96949.38
2019-05-09T19:22:21.561Z,96964.31
2019-05-09T19:24:46.308Z,96966.41
2019-05-09T19:27:19.483Z,96961.07
2019-05-09T19:29:52.070Z,96976.55
2019-05-09T19:32:25.898Z,96970.93
2019-05-09T19:35:01.556Z,96981.69
2019-05-09T19:37:36.066Z,96976.55
2019-05-09T19:40:09.762Z,96989.97
2019-05-09T19:42:46.111Z,96985.67
2019-05-09T19:45:20.328Z,96989.97
2019-05-09T19:47:54.402Z,96996.57
2019-05-09T19:50:28.849Z,97001.14
2019-05-09T19:53:01.835Z,96999.48
2019-05-09T19:55:34.391Z,97002.33
2019-05-09T19:58:07.060Z,97005.97
2019-05-09T20:00:39.499Z,97014.07
2019-05-09T20:03:11.928Z,97016.80
2019-05-09T20:05:44.935Z,97016.61
2019-05-09T20:08:17.411Z,97027.87
2019-05-09T20:11:23.796Z,97028.44
2019-05-09T20:14:21.853Z,97031.05
2019-05-09T20:16:56.089Z,97044.66
2019-05-09T20:19:28.883Z,97048.34
2019-05-09T20:22:11.148Z,97056.76
2019-05-09T20:24:43.941Z,97049.72
2019-05-09T20:27:17.904Z,97061.06
2019-05-09T20:29:58.183Z,97063.07
2019-05-09T20:32:31.631Z,97064.40
2019-05-09T20:35:05.014Z,97071.00
2019-05-09T20:37:38.413Z,97072.26
2019-05-09T20:40:09.745Z,97074.15
2019-05-09T20:42:42.263Z,97075.59
2019-05-09T20:45:16.140Z,97075.81
2019-05-09T20:47:51.035Z,97080.69
2019-05-09T20:50:25.525Z,97075.22
2019-05-09T20:53:09.588Z,97082.39
2019-05-09T20:55:35.911Z,97081.06
2019-05-09T20:58:07.366Z,97086.17
2019-05-09T21:00:43.354Z,97089.73
2019-05-09T21:03:17.468Z,97095.50
2019-05-09T21:05:53.849Z,97106.94
2019-05-09T21:08:29.757Z,97112.60
2019-05-09T21:11:05.398Z,97117.92
2019-05-09T21:13:48.082Z,97122.28
2019-05-09T21:16:13.067Z,97123.92
2019-05-09T21:18:48.878Z,97121.63
2019-05-09T21:21:21.943Z,97121.88
2019-05-09T21:23:54.852Z,97127.38
2019-05-09T21:26:27.555Z,97127.38
2019-05-09T21:29:00.771Z,97133.44
2019-05-09T21:31:34.367Z,97135.73
2019-05-09T21:34:07.534Z,97143.33
2019-05-09T21:36:41.618Z,97146.42
2019-05-09T21:39:14.334Z,97153.38
2019-05-09T21:41:46.690Z,97153.44
2019-05-09T21:44:21.987Z,97157.73
2019-05-09T21:46:54.981Z,97165.80
2019-05-09T21:49:27.643Z,97157.05
2019-05-09T21:52:00.045Z,97168.13
2019-05-09T21:54:32.126Z,97168.31
2019-05-09T21:57:05.560Z,97172.64
2019-05-09T21:59:38.593Z,97176.09
2019-05-09T22:02:11.329Z,97175.02
2019-05-09T22:04:43.775Z,97177.55
2019-05-09T22:07:17.562Z,97187.66
2019-05-09T22:09:50.400Z,97181.72
2019-05-09T22:12:22.823Z,97187.09
2019-05-09T22:14:55.319Z,97189.56
2019-05-09T22:17:46.437Z,97191.09
2019-05-09T22:20:20.486Z,97199.23
2019-05-09T22:22:53.694Z,97202.98
2019-05-09T22:25:26.133Z,97207.64
2019-05-09T22:27:58.881Z,97204.62
2019-05-09T22:30:31.711Z,97208.52
2019-05-09T22:33:04.758Z,97210.90
2019-05-09T22:35:37.383Z,97213.61
2019-05-09T22:38:10.235Z,97215.20
2019-05-09T22:40:44.704Z,97223.04
2019-05-09T22:43:17.839Z,97224.42
2019-05-09T22:45:50.354Z,97222.60
2019-05-09T22:48:23.218Z,97223.09
2019-05-09T22:50:56.166Z,97221.84
2019-05-09T22:53:28.438Z,97220.70
2019-05-09T22:56:01.280Z,97231.06
2019-05-09T22:58:35.214Z,97225.34
2019-05-09T23:01:07.954Z,97230.70
2019-05-09T23:03:41.479Z,97235.97
2019-05-09T23:06:14.151Z,97238.13
2019-05-09T23:08:47.164Z,97246.11
2019-05-09T23:11:20.694Z,97247.80
2019-05-09T23:13:54.799Z,97247.02
2019-05-09T23:16:29.741Z,97247.67
2019-05-09T23:19:02.964Z,97247.86
2019-05-09T23:21:36.103Z,97252.83
2019-05-09T23:24:10.396Z,97249.94
2019-05-09T23:26:43.528Z,97246.47
2019-05-09T23:29:16.108Z,97245.09
2019-05-09T23:32:06.658Z,97241.65
2019-05-09T23:34:39.907Z,97246.66
2019-05-09T23:37:12.087Z,97255.30
2019-05-09T23:39:46.235Z,97244.48
2019-05-09T23:42:19.435Z,97255.41
2019-05-09T23:44:52.263Z,97253.12
2019-05-09T23:47:24.770Z,97253.98
2019-05-09T23:49:57.873Z,97253.19
2019-05-09T23:52:29.584Z,97259.52
2019-05-09T23:55:20.297Z,97260.00
2019-05-09T23:58:10.641Z,97261.56
